Time;durP1;ratioP1;P1;durP2;ratioP2;P2;SDS_P1;SDS_P2;PMS_P1;PMS_P2;Temp;Humidity;BMP_temperature;BMP_pressure;BME280_temperature;BME280_humidity;BME280_pressure;Samples;Min_cycle;Max_cycle;Signal;HPM_P1;HPM_P2
2022/09/19 00:01:24;;;;;;;;;;;;;;;7.90;87.66;99854.95;1408686;92;20324;-81
2022/09/19 00:03:56;;;;;;;;;;;;;;;7.84;88.54;99851.09;1412108;92;20280;-80
2022/09/19 00:06:23;;;;;;;;;;;;;;;7.79;88.97;99838.00;1412803;91;20424;-81
2022/09/19 00:08:49;;;;;;;;;;;;;;;7.74;90.12;99844.19;1429614;91;20245;-81
2022/09/19 00:11:18;;;;;;;;;;;;;;;7.69;90.40;99840.68;1417778;90;20338;-82
2022/09/19 00:13:47;;;;;;;;;;;;;;;7.64;91.46;99841.59;1427646;91;20324;-83
2022/09/19 00:16:13;;;;;;;;;;;;;;;7.59;91.19;99838.05;1432511;91;20294;-84
2022/09/19 00:18:39;;;;;;;;;;;;;;;7.58;91.65;99839.04;1411732;91;20390;-83
2022/09/19 00:21:05;;;;;;;;;;;;;;;7.56;92.10;99834.39;1435819;91;20308;-83
2022/09/19 00:26:20;;;;;;;;;;;;;;;7.53;92.40;99825.95;1415797;91;21208;-83
2022/09/19 00:28:46;;;;;;;;;;;;;;;7.50;93.13;99827.56;1432942;91;20370;-82
2022/09/19 00:31:17;;;;;;;;;;;;;;;7.47;94.02;99823.41;1417419;92;20396;-83
2022/09/19 00:33:44;;;;;;;;;;;;;;;7.50;93.27;99832.33;1420064;91;20311;-83
2022/09/19 00:36:11;;;;;;;;;;;;;;;7.53;91.95;99831.22;1424309;91;20398;-83
2022/09/19 00:38:37;;;;;;;;;;;;;;;7.56;93.08;99828.30;1426845;92;20415;-84
2022/09/19 00:41:03;;;;;;;;;;;;;;;7.61;93.07;99830.85;1422134;92;20275;-83
2022/09/19 00:43:51;;;;;;;;;;;;;;;7.65;92.62;99832.24;1421558;91;20311;-84
2022/09/19 00:46:18;;;;;;;;;;;;;;;7.73;92.05;99830.68;1402313;92;20418;-85
2022/09/19 00:48:46;;;;;;;;;;;;;;;7.79;92.91;99832.24;1408167;92;20310;-79
2022/09/19 00:51:16;;;;;;;;;;;;;;;7.86;92.33;99825.93;1407884;93;20304;-80
2022/09/19 00:53:43;;;;;;;;;;;;;;;7.96;92.09;99825.38;1403357;92;20349;-82
2022/09/19 00:56:10;;;;;;;;;;;;;;;8.04;91.58;99819.40;1408802;93;20853;-83
2022/09/19 00:58:39;;;;;;;;;;;;;;;8.09;91.61;99817.98;1393383;92;20365;-83
2022/09/19 01:01:06;;;;;;;;;;;;;;;8.14;91.47;99813.57;1416948;92;20288;-82
2022/09/19 01:03:32;;;;;;;;;;;;;;;8.18;91.84;99814.13;1417265;91;20289;-81
2022/09/19 01:06:20;;;;;;;;;;;;;;;8.19;91.73;99810.51;1413064;92;20252;-82
2022/09/19 01:09:11;;;;;;;;;;;;;;;8.20;91.15;99811.69;1424825;91;20281;-83
2022/09/19 01:11:41;;;;;;;;;;;;;;;8.21;90.95;99812.52;1431497;91;20504;-80
2022/09/19 01:14:26;;;;;;;;;;;;;;;8.21;90.96;99812.52;1424255;91;20874;-82
2022/09/19 01:16:51;;;;;;;;;;;;;;;8.19;91.78;99803.92;1425767;91;20735;-83
2022/09/19 01:19:42;;;;;;;;;;;;;;;8.19;91.29;99805.23;1443847;90;20282;-83
2022/09/19 01:22:30;;;;;;;;;;;;;;;8.17;91.41;99797.95;1444317;91;20388;-83
2022/09/19 01:25:12;;;;;;;;;;;;;;;8.15;92.00;99794.16;1456943;90;20230;-82
2022/09/19 01:28:11;;;;;;;;;;;;;;;8.14;93.74;99791.17;1448096;90;20921;-82
2022/09/19 01:30:40;;;;;;;;;;;;;;;8.17;92.93;99794.86;1424379;92;20415;-83
2022/09/19 01:33:10;;;;;;;;;;;;;;;8.23;91.87;99791.62;1420922;92;21082;-84
2022/09/19 01:35:38;;;;;;;;;;;;;;;8.30;91.99;99787.90;1439966;90;20400;-83
2022/09/19 01:38:13;;;;;;;;;;;;;;;8.36;92.86;99789.94;1426043;90;20440;-80
2022/09/19 01:40:40;;;;;;;;;;;;;;;8.42;93.66;99796.45;1444738;90;20317;-83
2022/09/19 01:43:09;;;;;;;;;;;;;;;8.49;92.81;99797.04;1445785;89;20222;-83
2022/09/19 01:45:36;;;;;;;;;;;;;;;8.57;92.75;99793.63;1424494;90;20452;-83
2022/09/19 01:48:18;;;;;;;;;;;;;;;8.62;92.27;99791.88;1453089;90;20954;-80
2022/09/19 01:51:22;;;;;;;;;;;;;;;8.66;92.92;99786.63;1411120;92;20452;-82
2022/09/19 01:54:01;;;;;;;;;;;;;;;8.71;93.02;99790.47;1430309;92;20287;-82
2022/09/19 01:56:47;;;;;;;;;;;;;;;8.72;95.06;99796.10;1435816;91;20411;-83
2022/09/19 01:59:17;;;;;;;;;;;;;;;8.74;93.97;99799.89;1443866;90;20244;-82
2022/09/19 02:01:52;;;;;;;;;;;;;;;8.75;95.92;99794.48;1428354;90;20845;-82
2022/09/19 02:04:34;;;;;;;;;;;;;;;8.79;94.93;99798.46;1433162;90;20400;-81
2022/09/19 02:07:27;;;;;;;;;;;;;;;8.83;95.91;99800.30;1426655;90;20355;-82
2022/09/19 02:10:03;;;;;;;;;;;;;;;8.90;95.51;99794.77;1398747;92;20355;-81
2022/09/19 02:12:31;;;;;;;;;;;;;;;8.94;94.96;99792.16;1427963;91;20351;-81
2022/09/19 02:14:59;;;;;;;;;;;;;;;8.98;95.11;99792.70;1421323;90;20296;-83
2022/09/19 02:17:32;;;;;;;;;;;;;;;8.98;95.38;99789.56;1421605;92;20318;-83
2022/09/19 02:19:59;;;;;;;;;;;;;;;9.03;94.88;99801.82;1424193;90;20825;-83
2022/09/19 02:22:30;;;;;;;;;;;;;;;9.09;93.98;99806.12;1424359;92;20388;-80
2022/09/19 02:25:00;;;;;;;;;;;;;;;9.12;93.88;99792.62;1419983;90;20333;-81
2022/09/19 02:27:35;;;;;;;;;;;;;;;9.16;93.49;99785.57;1443549;89;20370;-83
2022/09/19 02:30:05;;;;;;;;;;;;;;;9.17;93.45;99782.43;1435993;90;20744;-82
2022/09/19 02:32:31;;;;;;;;;;;;;;;9.16;95.36;99776.33;1418204;90;20252;-83
2022/09/19 02:34:58;;;;;;;;;;;;;;;9.19;94.14;99776.52;1427418;90;20341;-80
2022/09/19 02:37:30;;;;;;;;;;;;;;;9.19;94.10;99776.52;1428010;91;20912;-81
2022/09/19 02:40:04;;;;;;;;;;;;;;;9.20;94.89;99771.56;1433544;90;20526;-81
2022/09/19 02:42:33;;;;;;;;;;;;;;;9.22;95.12;99765.64;1445453;90;20437;-82
2022/09/19 02:45:26;;;;;;;;;;;;;;;9.27;95.19;99762.05;1445594;89;20408;-80
2022/09/19 02:47:57;;;;;;;;;;;;;;;9.32;94.30;99763.74;1445950;90;20415;-80
2022/09/19 02:50:26;;;;;;;;;;;;;;;9.31;95.30;99760.74;1450906;89;20332;-81
2022/09/19 02:52:53;;;;;;;;;;;;;;;9.33;95.30;99766.70;1429362;90;20282;-81
2022/09/19 02:55:23;;;;;;;;;;;;;;;9.34;94.88;99765.71;1437135;90;20332;-80
2022/09/19 02:57:53;;;;;;;;;;;;;;;9.31;95.37;99768.66;1418824;89;20274;-80
2022/09/19 03:00:21;;;;;;;;;;;;;;;9.33;94.79;99770.67;1399339;92;20321;-79
2022/09/19 03:02:56;;;;;;;;;;;;;;;9.32;95.09;99769.02;1420922;92;20913;-80
2022/09/19 03:05:19;;;;;;;;;;;;;;;9.32;96.36;99775.62;1424801;92;20355;-82
2022/09/19 03:07:48;;;;;;;;;;;;;;;9.33;95.85;99773.31;1430456;91;20237;-82
2022/09/19 03:10:17;;;;;;;;;;;;;;;9.36;96.31;99771.67;1433863;91;20295;-82
2022/09/19 03:12:49;;;;;;;;;;;;;;;9.39;95.71;99769.22;1431993;91;20379;-83
2022/09/19 03:15:16;;;;;;;;;;;;;;;9.38;96.17;99775.00;1438806;91;20377;-83
2022/09/19 03:17:44;;;;;;;;;;;;;;;9.37;96.66;99774.64;1431003;91;20332;-81
2022/09/19 03:20:13;;;;;;;;;;;;;;;9.39;96.60;99774.00;1404815;93;21246;-83
2022/09/19 03:22:40;;;;;;;;;;;;;;;9.40;98.49;99773.01;1434466;91;20316;-82
2022/09/19 03:25:08;;;;;;;;;;;;;;;9.45;97.50;99777.84;1415271;93;20364;-83
2022/09/19 03:27:36;;;;;;;;;;;;;;;9.48;98.80;99782.30;1431388;91;20799;-83
2022/09/19 03:30:04;;;;;;;;;;;;;;;9.53;98.62;99786.31;1424643;92;20405;-83
2022/09/19 03:32:29;;;;;;;;;;;;;;;9.54;99.55;99778.70;1420782;91;20907;-82
2022/09/19 03:34:55;;;;;;;;;;;;;;;9.56;99.39;99788.64;1417295;92;20269;-80
2022/09/19 03:37:23;;;;;;;;;;;;;;;9.57;98.71;99787.14;1421167;92;20296;-80
2022/09/19 03:39:49;;;;;;;;;;;;;;;9.55;100.00;99789.13;1420579;91;20341;-81
2022/09/19 03:42:15;;;;;;;;;;;;;;;9.54;100.00;99787.95;1415419;91;20378;-84
2022/09/19 03:44:40;;;;;;;;;;;;;;;9.55;100.00;99784.31;1422753;92;20311;-84
2022/09/19 03:47:09;;;;;;;;;;;;;;;9.51;100.00;99779.84;1409127;91;20289;-83
2022/09/19 03:49:34;;;;;;;;;;;;;;;9.56;100.00;99782.03;1422149;91;20288;-84
2022/09/19 03:52:00;;;;;;;;;;;;;;;9.57;100.00;99782.36;1420865;92;20315;-83
2022/09/19 03:54:27;;;;;;;;;;;;;;;9.55;100.00;99776.39;1428559;91;20364;-83
2022/09/19 03:56:53;;;;;;;;;;;;;;;9.55;100.00;99782.53;1416234;92;21005;-82
2022/09/19 03:59:19;;;;;;;;;;;;;;;9.56;100.00;99780.71;1417196;90;20311;-82
2022/09/19 04:01:45;;;;;;;;;;;;;;;9.55;100.00;99773.28;1418943;90;20258;-80
2022/09/19 04:04:11;;;;;;;;;;;;;;;9.55;100.00;99775.07;1423440;90;20266;-83
2022/09/19 04:06:37;;;;;;;;;;;;;;;9.55;100.00;99769.79;1426036;90;20288;-83
2022/09/19 04:09:04;;;;;;;;;;;;;;;9.53;100.00;99770.45;1418893;90;20832;-80
2022/09/19 04:11:30;;;;;;;;;;;;;;;9.52;100.00;99767.47;1427521;90;20305;-80
2022/09/19 04:13:56;;;;;;;;;;;;;;;9.48;100.00;99775.70;1423477;90;20822;-78
2022/09/19 04:16:24;;;;;;;;;;;;;;;9.46;100.00;99771.06;1439226;90;20278;-80
2022/09/19 04:18:50;;;;;;;;;;;;;;;9.48;100.00;99774.38;1424165;91;20302;-81
2022/09/19 04:21:17;;;;;;;;;;;;;;;9.48;100.00;99767.78;1415995;91;20287;-80
2022/09/19 04:23:43;;;;;;;;;;;;;;;9.47;100.00;99760.84;1414437;91;20323;-87
2022/09/19 04:26:11;;;;;;;;;;;;;;;9.49;100.00;99768.13;1419470;91;20740;-82
2022/09/19 04:28:39;;;;;;;;;;;;;;;9.49;100.00;99774.73;1415738;91;20308;-81
2022/09/19 04:31:09;;;;;;;;;;;;;;;9.49;100.00;99775.20;1427857;91;20302;-82
2022/09/19 04:33:36;;;;;;;;;;;;;;;9.52;100.00;99778.03;1433480;92;20244;-82
2022/09/19 04:36:05;;;;;;;;;;;;;;;9.51;100.00;99769.28;1429880;90;20252;-82
2022/09/19 04:38:33;;;;;;;;;;;;;;;9.49;100.00;99769.92;1415203;92;20468;-80
2022/09/19 04:41:00;;;;;;;;;;;;;;;9.47;100.00;99760.84;1420007;92;20819;-82
2022/09/19 04:43:27;;;;;;;;;;;;;;;9.46;100.00;99773.70;1416543;92;20547;-80
2022/09/19 04:45:54;;;;;;;;;;;;;;;9.46;100.00;99776.84;1414415;92;20246;-80
2022/09/19 04:48:21;;;;;;;;;;;;;;;9.47;100.00;99774.05;1426260;91;20243;-79
2022/09/19 04:50:53;;;;;;;;;;;;;;;9.49;100.00;99782.66;1440070;91;20272;-80
2022/09/19 04:53:23;;;;;;;;;;;;;;;9.49;100.00;99772.56;1447414;90;20348;-81
2022/09/19 04:55:50;;;;;;;;;;;;;;;9.51;100.00;99777.70;1436240;89;20296;-82
2022/09/19 04:58:16;;;;;;;;;;;;;;;9.53;100.00;99769.96;1447770;90;20252;-80
2022/09/19 05:00:45;;;;;;;;;;;;;;;9.56;100.00;99770.14;1452483;90;20268;-80
2022/09/19 05:03:16;;;;;;;;;;;;;;;9.58;100.00;99778.25;1457536;90;20890;-82
2022/09/19 05:05:50;;;;;;;;;;;;;;;9.58;100.00;99778.25;1451065;90;20430;-81
2022/09/19 05:08:15;;;;;;;;;;;;;;;9.59;100.00;99784.36;1446548;90;20386;-83
2022/09/19 05:10:42;;;;;;;;;;;;;;;9.58;100.00;99784.00;1443138;90;20377;-82
2022/09/19 05:13:08;;;;;;;;;;;;;;;9.56;100.00;99779.39;1450425;90;20950;-82
2022/09/19 05:15:34;;;;;;;;;;;;;;;9.59;100.00;99788.32;1427842;91;20855;-82
2022/09/19 05:18:00;;;;;;;;;;;;;;;9.60;100.00;99788.15;1439931;90;20340;-83
2022/09/19 05:20:26;;;;;;;;;;;;;;;9.61;100.00;99783.69;1440857;89;20362;-82
2022/09/19 05:22:59;;;;;;;;;;;;;;;9.68;100.00;99787.37;1429456;90;21242;-80
2022/09/19 05:25:27;;;;;;;;;;;;;;;9.74;100.00;99788.06;1455459;89;20296;-83
2022/09/19 05:27:54;;;;;;;;;;;;;;;9.79;100.00;99784.45;1446607;89;20274;-82
2022/09/19 05:30:26;;;;;;;;;;;;;;;9.82;100.00;99789.42;1452416;89;20341;-81
2022/09/19 05:32:51;;;;;;;;;;;;;;;9.85;100.00;99785.14;1452200;89;20245;-84
2022/09/19 05:35:18;;;;;;;;;;;;;;;9.86;100.00;99784.14;1449421;89;20392;-82
2022/09/19 05:37:47;;;;;;;;;;;;;;;9.88;100.00;99786.14;1452071;89;20407;-82
2022/09/19 05:40:13;;;;;;;;;;;;;;;9.92;100.00;99778.72;1454702;89;20312;-82
2022/09/19 05:42:41;;;;;;;;;;;;;;;9.98;100.00;99786.51;1449266;90;20260;-79
2022/09/19 05:45:09;;;;;;;;;;;;;;;10.04;100.00;99788.51;1450241;89;20326;-81
2022/09/19 05:47:39;;;;;;;;;;;;;;;10.07;99.66;99788.19;1443892;89;20467;-81
2022/09/19 05:50:07;;;;;;;;;;;;;;;10.13;99.25;99787.58;1443540;89;20325;-79
2022/09/19 05:55:25;;;;;;;;;;;;;;;10.27;99.12;99794.92;1445508;89;20810;-81
2022/09/19 05:57:56;;;;;;;;;;;;;;;10.39;97.81;99800.73;1447734;90;20440;-83
2022/09/19 06:00:25;;;;;;;;;;;;;;;10.44;96.57;99804.20;1445042;89;20356;-81
2022/09/19 06:02:56;;;;;;;;;;;;;;;10.49;95.88;99800.58;1451845;89;20296;-80
2022/09/19 06:05:23;;;;;;;;;;;;;;;10.52;95.58;99805.05;1442846;89;20406;-83
2022/09/19 06:07:51;;;;;;;;;;;;;;;10.52;95.20;99804.23;1450694;89;20333;-83
2022/09/19 06:10:18;;;;;;;;;;;;;;;10.56;94.34;99810.87;1469333;88;20491;-80
2022/09/19 06:12:44;;;;;;;;;;;;;;;10.61;94.01;99815.16;1473919;88;20290;-82
2022/09/19 06:15:11;;;;;;;;;;;;;;;10.61;92.99;99800.59;1469674;89;20254;-81
2022/09/19 06:17:37;;;;;;;;;;;;;;;10.66;92.93;99810.70;1472919;89;20299;-86
2022/09/19 06:20:03;;;;;;;;;;;;;;;10.69;91.66;99805.09;1472423;89;20233;-81
2022/09/19 06:22:29;;;;;;;;;;;;;;;10.75;91.47;99805.25;1473587;88;20888;-83
2022/09/19 06:24:55;;;;;;;;;;;;;;;10.86;92.76;99804.61;1470414;89;20314;-83
2022/09/19 06:27:22;;;;;;;;;;;;;;;10.93;90.58;99803.77;1465928;88;20299;-82
2022/09/19 06:29:48;;;;;;;;;;;;;;;11.05;91.79;99810.91;1470905;87;20255;-87
2022/09/19 06:32:14;;;;;;;;;;;;;;;11.16;90.46;99807.91;1479415;88;20349;-88
2022/09/19 06:34:40;;;;;;;;;;;;;;;11.30;87.75;99800.61;1466613;89;20365;-86
2022/09/19 06:37:06;;;;;;;;;;;;;;;11.40;86.40;99801.77;1453877;89;20290;-87
2022/09/19 06:39:32;;;;;;;;;;;;;;;11.48;86.68;99803.59;1456550;88;20212;-84
2022/09/19 06:41:58;;;;;;;;;;;;;;;11.54;85.35;99805.56;1402844;91;20262;-85
2022/09/19 06:44:25;;;;;;;;;;;;;;;11.55;85.32;99808.53;1434317;90;20383;-88
2022/09/19 06:46:51;;;;;;;;;;;;;;;11.57;85.17;99815.00;1354692;91;20236;-87
2022/09/19 06:49:17;;;;;;;;;;;;;;;11.56;84.07;99818.13;1500965;91;20251;-86
2022/09/19 06:51:43;;;;;;;;;;;;;;;11.57;84.32;99818.47;1360563;91;20281;-84
2022/09/19 06:54:09;;;;;;;;;;;;;;;11.53;82.63;99819.28;1337859;92;20229;-83
2022/09/19 06:56:35;;;;;;;;;;;;;;;11.49;83.52;99829.08;1359827;90;20942;-83
2022/09/19 06:59:02;;;;;;;;;;;;;;;11.45;83.29;99833.05;1384395;91;20302;-86
2022/09/19 07:01:28;;;;;;;;;;;;;;;11.37;82.75;99833.91;1430328;90;20317;-87
2022/09/19 07:03:53;;;;;;;;;;;;;;;11.37;83.12;99837.05;1415598;92;20372;-86
2022/09/19 07:06:20;;;;;;;;;;;;;;;11.37;83.02;99837.05;1406252;91;20306;-86
2022/09/19 07:08:45;;;;;;;;;;;;;;;11.35;82.38;99838.53;1453857;89;20307;-85
2022/09/19 07:11:11;;;;;;;;;;;;;;;11.41;82.46;99848.45;1455265;89;20280;-88
2022/09/19 07:13:37;;;;;;;;;;;;;;;11.52;83.35;99848.63;1449782;89;20969;-84
2022/09/19 07:16:04;;;;;;;;;;;;;;;11.57;81.75;99847.63;1457336;89;20299;-87
2022/09/19 07:18:31;;;;;;;;;;;;;;;11.65;81.28;99854.24;1452587;89;20806;-85
2022/09/19 07:20:59;;;;;;;;;;;;;;;11.60;79.72;99848.61;1455318;89;20425;-86
2022/09/19 07:23:25;;;;;;;;;;;;;;;11.57;80.05;99851.60;1458427;89;20409;-83
2022/09/19 07:25:54;;;;;;;;;;;;;;;11.54;79.92;99854.59;1455349;89;20324;-84
2022/09/19 07:28:20;;;;;;;;;;;;;;;11.52;79.91;99856.07;1427692;89;20328;-86
2022/09/19 07:30:48;;;;;;;;;;;;;;;11.52;79.28;99860.55;1413646;92;20291;-85
2022/09/19 07:33:16;;;;;;;;;;;;;;;11.50;78.48;99860.70;1402067;91;20356;-86
2022/09/19 07:35:42;;;;;;;;;;;;;;;11.48;77.89;99857.91;1415130;92;20394;-84
2022/09/19 07:38:17;;;;;;;;;;;;;;;11.49;76.77;99863.03;1421620;92;20752;-85
2022/09/19 07:40:43;;;;;;;;;;;;;;;11.53;77.37;99864.34;1455911;89;20828;-84
2022/09/19 07:43:13;;;;;;;;;;;;;;;11.59;76.57;99873.95;1457409;89;20329;-86
2022/09/19 07:45:38;;;;;;;;;;;;;;;11.65;76.53;99878.10;1455765;89;20331;-83
2022/09/19 07:48:04;;;;;;;;;;;;;;;11.68;75.96;99876.44;1453688;89;20868;-84
2022/09/19 07:50:31;;;;;;;;;;;;;;;11.67;75.74;99876.59;1453594;89;20383;-87
2022/09/19 07:53:01;;;;;;;;;;;;;;;11.64;76.17;99875.60;1453788;89;20533;-86
2022/09/19 07:55:28;;;;;;;;;;;;;;;11.55;75.39;99883.23;1451845;89;20784;-87
2022/09/19 07:57:56;;;;;;;;;;;;;;;11.49;75.48;99887.38;1457588;89;20692;-84
2022/09/19 08:00:23;;;;;;;;;;;;;;;11.45;76.49;99866.17;1447706;89;20426;-86
2022/09/19 08:02:57;;;;;;;;;;;;;;;11.40;75.84;99881.26;1459285;89;20411;-86
2022/09/19 08:05:24;;;;;;;;;;;;;;;11.39;76.42;99890.69;1453593;89;20315;-87
2022/09/19 08:07:50;;;;;;;;;;;;;;;11.34;76.55;99885.08;1451119;89;20338;-86
2022/09/19 08:10:17;;;;;;;;;;;;;;;11.35;76.44;99888.05;1453459;89;20284;-86
2022/09/19 08:12:47;;;;;;;;;;;;;;;11.29;75.80;99891.69;1455404;89;20279;-86
2022/09/19 08:15:15;;;;;;;;;;;;;;;11.32;76.67;99897.66;1434864;89;20389;-86
2022/09/19 08:17:44;;;;;;;;;;;;;;;11.28;75.23;99897.98;1450678;89;20300;-84
2022/09/19 08:20:12;;;;;;;;;;;;;;;11.29;76.14;99896.98;1455763;89;20771;-88
2022/09/19 08:22:37;;;;;;;;;;;;;;;11.35;76.31;99897.32;1445685;89;20337;-87
2022/09/19 08:25:04;;;;;;;;;;;;;;;11.36;76.13;99897.64;1453345;89;20271;-87
2022/09/19 08:27:30;;;;;;;;;;;;;;;11.46;75.50;99891.69;1453301;90;20358;-87
2022/09/19 08:29:56;;;;;;;;;;;;;;;11.52;75.60;99895.00;1453466;89;20264;-87
2022/09/19 08:32:23;;;;;;;;;;;;;;;11.57;74.32;99900.63;1456113;89;20919;-87
2022/09/19 08:34:48;;;;;;;;;;;;;;;11.62;74.11;99904.91;1459804;89;20405;-87
2022/09/19 08:37:15;;;;;;;;;;;;;;;11.67;73.15;99902.59;1454591;89;20278;-85
2022/09/19 08:40:15;;;;;;;;;;;;;;;11.72;72.67;99913.53;1450691;89;20435;-86
2022/09/19 08:42:15;;;;;;;;;;;;;;;11.74;71.24;99904.92;1455650;89;20376;-89
2022/09/19 08:44:56;;;;;;;;;;;;;;;11.82;72.67;99906.71;1454830;89;20314;-85
2022/09/19 08:47:23;;;;;;;;;;;;;;;11.85;71.58;99906.41;1450610;89;20830;-83
2022/09/19 08:49:59;;;;;;;;;;;;;;;11.88;71.94;99903.91;1454400;89;20405;-84
2022/09/19 08:52:47;;;;;;;;;;;;;;;11.94;71.99;99911.22;1455388;88;20924;-83
2022/09/19 08:55:18;;;;;;;;;;;;;;;12.00;72.68;99910.55;1454027;89;20307;-85
2022/09/19 08:57:54;;;;;;;;;;;;;;;12.07;72.83;99903.55;1454422;89;20299;-85
2022/09/19 09:00:22;;;;;;;;;;;;;;;12.18;73.16;99906.34;1444283;89;20314;-82
2022/09/19 09:03:03;;;;;;;;;;;;;;;12.26;72.14;99914.79;1452507;89;20344;-83
2022/09/19 09:05:56;;;;;;;;;;;;;;;12.26;71.94;99920.09;1456588;89;21073;-84
2022/09/19 09:08:34;;;;;;;;;;;;;;;12.35;71.97;99911.92;1455345;89;20329;-83
2022/09/19 09:11:22;;;;;;;;;;;;;;;12.44;72.37;99906.59;1455115;89;20299;-86
2022/09/19 09:14:26;;;;;;;;;;;;;;;12.32;73.23;99910.13;1454529;89;20773;-84
2022/09/19 09:17:04;;;;;;;;;;;;;;;12.23;74.04;99909.80;1456110;89;21875;-85
2022/09/19 09:19:43;;;;;;;;;;;;;;;12.09;73.82;99916.16;1451813;89;20419;-85
2022/09/19 09:22:16;;;;;;;;;;;;;;;11.99;74.43;99915.50;1451875;89;20298;-85
2022/09/19 09:24:45;;;;;;;;;;;;;;;11.96;75.15;99922.47;1488381;90;20317;-85
2022/09/19 09:27:20;;;;;;;;;;;;;;;11.95;76.62;99918.17;1426548;90;20433;-83
2022/09/19 09:29:53;;;;;;;;;;;;;;;11.94;76.15;99919.18;1413974;89;20370;-82
2022/09/19 09:32:36;;;;;;;;;;;;;;;12.07;75.99;99914.16;1497318;92;20416;-85
2022/09/19 09:35:07;;;;;;;;;;;;;;;12.19;74.98;99920.75;1331675;91;20283;-85
2022/09/19 09:37:40;;;;;;;;;;;;;;;12.32;73.89;99925.53;1336855;93;20328;-86
2022/09/19 09:40:13;;;;;;;;;;;;;;;12.41;74.73;99917.05;1322560;91;20253;-86
2022/09/19 09:42:55;;;;;;;;;;;;;;;12.54;73.80;99912.50;1485014;92;20901;-85
2022/09/19 09:45:32;;;;;;;;;;;;;;;12.68;73.96;99916.25;1410263;92;20394;-84
2022/09/19 09:48:01;;;;;;;;;;;;;;;12.82;72.16;99920.83;1396218;94;20879;-83
2022/09/19 09:50:48;;;;;;;;;;;;;;;13.07;71.62;99919.69;1408187;92;20311;-86
2022/09/19 09:53:30;;;;;;;;;;;;;;;13.35;71.77;99910.37;1392645;94;21226;-87
2022/09/19 09:56:14;;;;;;;;;;;;;;;13.71;69.80;99918.56;1416607;92;20419;-85
2022/09/19 09:58:44;;;;;;;;;;;;;;;13.83;66.79;99914.45;1390928;94;20352;-84
2022/09/19 10:04:23;;;;;;;;;;;;;;;14.09;67.31;99918.52;1389646;94;20359;-83
2022/09/19 10:07:14;;;;;;;;;;;;;;;13.95;65.81;99922.33;1426586;92;20896;-82
2022/09/19 10:09:46;;;;;;;;;;;;;;;13.89;66.81;99912.39;1398317;94;20344;-83
2022/09/19 10:12:32;;;;;;;;;;;;;;;13.86;65.46;99920.73;1392195;92;20260;-83
2022/09/19 10:15:01;;;;;;;;;;;;;;;13.92;65.03;99909.87;1395292;94;20329;-84
2022/09/19 10:17:30;;;;;;;;;;;;;;;13.97;65.74;99916.30;1410860;91;20432;-86
2022/09/19 10:19:59;;;;;;;;;;;;;;;14.16;66.00;99916.79;1396694;94;20329;-83
2022/09/19 10:22:29;;;;;;;;;;;;;;;14.25;65.00;99930.31;1424542;90;20413;-86
2022/09/19 10:24:59;;;;;;;;;;;;;;;14.22;64.92;99915.54;1430425;91;20288;-86
2022/09/19 10:27:37;;;;;;;;;;;;;;;14.17;65.10;99925.08;1477622;91;20399;-88
2022/09/19 10:30:26;;;;;;;;;;;;;;;14.14;65.93;99927.60;1431995;91;20259;-86
2022/09/19 10:32:54;;;;;;;;;;;;;;;14.14;65.47;99924.12;1416547;90;20962;-85
2022/09/19 10:35:27;;;;;;;;;;;;;;;14.10;65.12;99922.84;1427564;91;20310;-85
2022/09/19 10:38:14;;;;;;;;;;;;;;;13.98;65.18;99928.61;1432302;90;20302;-87
2022/09/19 10:40:43;;;;;;;;;;;;;;;13.74;65.57;99924.34;1429169;90;20832;-88
2022/09/19 10:43:12;;;;;;;;;;;;;;;13.64;66.39;99930.94;1419541;91;20385;-87
2022/09/19 10:45:39;;;;;;;;;;;;;;;13.55;66.49;99922.17;1408656;91;20511;-88
2022/09/19 10:48:17;;;;;;;;;;;;;;;13.50;66.80;99936.02;1405904;91;20410;-88
2022/09/19 10:50:45;;;;;;;;;;;;;;;13.50;66.84;99928.05;1426002;91;20431;-86
2022/09/19 10:53:18;;;;;;;;;;;;;;;13.56;66.42;99921.70;1432711;91;20295;-85
2022/09/19 10:55:44;;;;;;;;;;;;;;;13.81;66.86;99924.46;1427527;91;20912;-89
2022/09/19 10:58:19;;;;;;;;;;;;;;;13.86;65.78;99914.08;1436396;90;20816;-85
2022/09/19 11:01:08;;;;;;;;;;;;;;;14.04;66.88;99906.25;1430686;91;20362;-87
2022/09/19 11:03:39;;;;;;;;;;;;;;;14.34;65.81;99907.91;1425761;91;20317;-84
2022/09/19 11:06:08;;;;;;;;;;;;;;;14.38;63.62;99907.85;1428481;91;20610;-83
2022/09/19 11:08:43;;;;;;;;;;;;;;;14.64;65.99;99895.91;1427435;90;20317;-90
2022/09/19 11:11:23;;;;;;;;;;;;;;;14.97;63.09;99899.48;1427437;91;20339;-84
2022/09/19 11:14:21;;;;;;;;;;;;;;;15.02;61.75;99903.73;1431339;90;20332;-86
2022/09/19 11:17:11;;;;;;;;;;;;;;;15.08;62.76;99900.31;1437704;91;20348;-84
2022/09/19 11:20:16;;;;;;;;;;;;;;;15.20;62.22;99888.13;1431366;90;20280;-86
2022/09/19 11:23:16;;;;;;;;;;;;;;;15.32;61.18;99897.25;1426990;91;20318;-85
2022/09/19 11:25:48;;;;;;;;;;;;;;;15.15;61.99;99901.19;1432010;91;20281;-87
2022/09/19 11:28:33;;;;;;;;;;;;;;;15.22;61.31;99898.58;1411390;91;20251;-83
2022/09/19 11:31:08;;;;;;;;;;;;;;;14.98;60.48;99902.45;1434035;91;20369;-84
2022/09/19 11:34:01;;;;;;;;;;;;;;;14.76;61.95;99902.43;1429670;91;20481;-84
2022/09/19 11:36:40;;;;;;;;;;;;;;;14.53;62.55;99901.72;1431181;91;20294;-86
2022/09/19 11:39:08;;;;;;;;;;;;;;;14.85;63.83;99892.48;1416234;91;20294;-86
2022/09/19 11:41:55;;;;;;;;;;;;;;;15.12;62.00;99894.91;1427478;91;20309;-86
2022/09/19 11:44:39;;;;;;;;;;;;;;;15.16;61.95;99893.50;1427467;91;21065;-82
2022/09/19 11:47:10;;;;;;;;;;;;;;;15.28;61.03;99898.66;1417430;91;20259;-86
2022/09/19 11:49:56;;;;;;;;;;;;;;;15.34;60.61;99895.23;1427311;90;20310;-82
2022/09/19 11:52:48;;;;;;;;;;;;;;;15.31;57.14;99900.95;1432109;90;20332;-88
2022/09/19 11:55:36;;;;;;;;;;;;;;;15.33;57.06;99894.92;1441978;91;20274;-87
2022/09/19 11:58:18;;;;;;;;;;;;;;;15.51;60.20;99892.30;1432029;91;20244;-85
2022/09/19 12:01:25;;;;;;;;;;;;;;;15.69;61.88;99894.52;1432767;91;20315;-86
2022/09/19 12:04:15;;;;;;;;;;;;;;;15.74;61.72;99892.92;1427973;91;20325;-86
2022/09/19 12:06:50;;;;;;;;;;;;;;;15.48;61.79;99882.84;1424378;91;20788;-85
2022/09/19 12:09:22;;;;;;;;;;;;;;;15.16;61.46;99881.50;1433546;91;20794;-84
2022/09/19 12:11:53;;;;;;;;;;;;;;;15.01;61.49;99895.41;1426053;91;20882;-85
2022/09/19 12:14:31;;;;;;;;;;;;;;;14.80;60.99;99898.37;1434622;91;20325;-86
2022/09/19 12:17:03;;;;;;;;;;;;;;;14.72;60.98;99879.83;1427642;91;20309;-83
2022/09/19 12:19:44;;;;;;;;;;;;;;;14.70;61.68;99888.50;1404645;91;20332;-83
2022/09/19 12:22:19;;;;;;;;;;;;;;;14.88;62.19;99891.59;1434373;91;20354;-86
2022/09/19 12:25:01;;;;;;;;;;;;;;;15.09;60.89;99883.30;1428819;91;20244;-86
2022/09/19 12:27:41;;;;;;;;;;;;;;;15.29;60.47;99876.30;1436838;91;20310;-86
2022/09/19 12:30:14;;;;;;;;;;;;;;;15.70;56.35;99875.62;1430859;91;20288;-86
2022/09/19 12:33:04;;;;;;;;;;;;;;;15.75;55.66;99875.88;1434073;91;20265;-86
2022/09/19 12:35:51;;;;;;;;;;;;;;;16.01;55.66;99875.22;1429176;90;20444;-86
2022/09/19 12:38:24;;;;;;;;;;;;;;;16.44;55.99;99887.56;1438520;90;20340;-86
2022/09/19 12:40:58;;;;;;;;;;;;;;;17.12;54.22;99886.27;1435946;91;20288;-87
2022/09/19 12:43:57;;;;;;;;;;;;;;;17.01;52.30;99878.33;1431594;91;20331;-87
2022/09/19 12:46:46;;;;;;;;;;;;;;;16.80;53.92;99882.47;1437952;91;20244;-87
2022/09/19 12:49:37;;;;;;;;;;;;;;;16.77;53.13;99872.19;1433592;90;20332;-86
2022/09/19 12:52:12;;;;;;;;;;;;;;;16.50;53.92;99874.75;1432446;91;20310;-87
2022/09/19 12:54:52;;;;;;;;;;;;;;;16.26;55.29;99868.59;1433999;91;20399;-87
2022/09/19 12:57:35;;;;;;;;;;;;;;;15.87;54.87;99877.50;1432403;91;20729;-87
2022/09/19 12:59:58;;;;;;;;;;;;;;;15.56;56.77;99875.19;1426386;91;20310;-87
2022/09/19 13:02:30;;;;;;;;;;;;;;;15.31;57.71;99886.28;1436484;90;20957;-87
2022/09/19 13:05:00;;;;;;;;;;;;;;;15.10;58.68;99900.45;1428695;90;20296;-85
2022/09/19 13:07:43;;;;;;;;;;;;;;;14.74;60.05;99923.09;1425789;91;20287;-85
2022/09/19 13:10:27;;;;;;;;;;;;;;;13.92;63.63;99945.78;1430304;90;20357;-86
2022/09/19 13:13:03;;;;;;;;;;;;;;;13.36;64.76;99954.06;1431286;90;20735;-87
2022/09/19 13:15:38;;;;;;;;;;;;;;;12.58;72.65;99947.83;1426934;91;20860;-88
2022/09/19 13:23:36;;;;;;;;;;;;;;;11.51;80.18;99963.58;1434219;90;20378;-85
2022/09/19 13:26:19;;;;;;;;;;;;;;;11.32;83.96;99952.78;1429212;91;20310;-87
2022/09/19 13:28:49;;;;;;;;;;;;;;;11.04;85.18;99962.83;1425689;91;20400;-84
2022/09/19 13:31:17;;;;;;;;;;;;;;;10.96;84.67;99966.30;1429314;91;20287;-84